createdAt,value
2022-07-25T00:02:41.718Z,23.50
2022-07-25T00:07:44.308Z,23.60
2022-07-25T00:12:46.727Z,23.40
2022-07-25T00:17:48.989Z,23.40
2022-07-25T00:22:51.296Z,23.50
2022-07-25T00:27:53.716Z,23.60
2022-07-25T00:32:55.956Z,23.70
2022-07-25T00:37:58.527Z,23.80
2022-07-25T00:43:01.008Z,23.90
2022-07-25T00:48:03.513Z,23.90
2022-07-25T00:53:05.821Z,23.90
2022-07-25T00:58:08.072Z,24.00
2022-07-25T01:03:10.496Z,24.00
2022-07-25T01:08:13.492Z,24.00
2022-07-25T01:13:15.953Z,24.00
2022-07-25T01:18:18.236Z,23.90
2022-07-25T01:23:20.945Z,24.00
2022-07-25T01:28:23.325Z,24.00
2022-07-25T01:33:25.598Z,24.10
2022-07-25T01:38:27.864Z,24.10
2022-07-25T01:43:30.359Z,24.10
2022-07-25T01:48:32.701Z,24.10
2022-07-25T01:53:35.028Z,24.10
2022-07-25T01:58:38.414Z,24.00
2022-07-25T02:03:40.659Z,24.00
2022-07-25T02:08:42.921Z,24.00
2022-07-25T02:13:45.147Z,24.00
2022-07-25T02:18:47.732Z,24.00
2022-07-25T02:23:50.300Z,23.90
2022-07-25T02:28:52.567Z,23.90
2022-07-25T02:33:54.837Z,23.90
2022-07-25T02:38:57.173Z,23.80
2022-07-25T02:43:59.625Z,23.70
2022-07-25T02:49:02.246Z,23.70
2022-07-25T02:54:04.560Z,23.70
2022-07-25T02:59:07.036Z,23.60
2022-07-25T03:04:09.969Z,23.30
2022-07-25T03:09:12.699Z,23.00
2022-07-25T03:14:14.973Z,22.60
2022-07-25T05:55:17.683Z,19.30
2022-07-25T06:00:20.358Z,22.10
2022-07-25T06:05:22.663Z,22.60
2022-07-25T06:10:25.051Z,23.00
2022-07-25T06:15:27.668Z,23.30
2022-07-25T06:20:30.067Z,23.60
2022-07-25T06:25:32.376Z,23.70
2022-07-25T06:30:35.485Z,23.80
2022-07-25T06:35:38.503Z,23.80
2022-07-25T06:40:41.208Z,23.70
2022-07-25T06:45:47.487Z,23.90
2022-07-25T06:50:50.169Z,24.20
2022-07-25T06:55:52.444Z,24.50
2022-07-25T07:00:55.045Z,24.60
2022-07-25T07:05:57.803Z,24.90
2022-07-25T07:11:00.347Z,25.20
2022-07-25T07:16:03.716Z,25.40
2022-07-25T07:21:06.866Z,25.70
2022-07-25T07:26:10.085Z,25.90
2022-07-25T07:31:17.133Z,26.30
2022-07-25T07:36:20.098Z,26.30
2022-07-25T07:41:22.748Z,26.50
2022-07-25T07:46:25.035Z,26.30
2022-07-25T07:51:27.336Z,26.10
2022-07-25T07:56:29.615Z,26.20
2022-07-25T08:01:31.927Z,26.20
2022-07-25T08:06:34.396Z,26.50
2022-07-25T08:11:36.629Z,26.70
2022-07-25T08:16:38.985Z,26.80
2022-07-25T08:21:41.384Z,27.20
2022-07-25T08:26:43.708Z,26.80
2022-07-25T08:31:46.015Z,26.70
2022-07-25T08:36:48.855Z,26.70
2022-07-25T08:41:51.471Z,26.60
2022-07-25T08:46:54.291Z,26.50
2022-07-25T08:51:57.134Z,26.40
2022-07-25T08:56:59.458Z,26.30
2022-07-25T09:02:04.108Z,26.20
2022-07-25T09:07:08.428Z,25.90
2022-07-25T09:12:10.929Z,25.60
2022-07-25T09:17:21.965Z,25.40
2022-07-25T09:22:25.988Z,25.20
2022-07-25T09:27:34.575Z,25.10
2022-07-25T09:32:36.869Z,25.00
2022-07-25T09:37:39.141Z,25.00
2022-07-25T09:42:42.924Z,25.00
2022-07-25T09:48:04.042Z,25.10
2022-07-25T09:53:06.396Z,24.90
2022-07-25T09:58:08.705Z,25.10
2022-07-25T10:08:22.750Z,25.00
2022-07-25T10:13:35.124Z,25.00
2022-07-25T10:18:50.351Z,24.80
2022-07-25T10:24:10.285Z,25.10
2022-07-25T10:29:14.022Z,25.40
2022-07-25T10:34:16.410Z,25.10
2022-07-25T10:39:21.316Z,25.10
2022-07-25T10:44:23.657Z,25.10
2022-07-25T10:49:31.799Z,25.30
2022-07-25T10:54:38.064Z,25.00
2022-07-25T10:59:41.385Z,25.00
2022-07-25T11:04:45.170Z,25.00
2022-07-25T11:09:57.277Z,24.90
2022-07-25T11:15:04.226Z,24.90
2022-07-25T11:20:10.603Z,25.10
2022-07-25T11:25:14.596Z,25.20
2022-07-25T11:30:20.132Z,25.00
2022-07-25T11:35:27.788Z,25.20
2022-07-25T11:40:31.549Z,25.10
2022-07-25T11:45:34.967Z,24.90
2022-07-25T11:50:40.887Z,24.90
2022-07-25T11:55:43.787Z,24.70
2022-07-25T12:00:47.954Z,24.60
2022-07-25T12:05:50.854Z,24.60
2022-07-25T12:10:55.025Z,24.50
2022-07-25T12:15:59.478Z,24.40
2022-07-25T12:21:01.721Z,24.20
2022-07-25T12:26:04.037Z,24.00
2022-07-25T12:31:07.039Z,24.30
2022-07-25T12:36:12.910Z,24.10
2022-07-25T12:41:18.005Z,24.10
2022-07-25T12:46:21.294Z,24.20
2022-07-25T12:51:23.736Z,24.40
2022-07-25T12:56:26.016Z,24.30
2022-07-25T13:01:28.601Z,24.60
2022-07-25T13:06:34.402Z,24.90
2022-07-25T13:11:39.432Z,25.00
2022-07-25T13:16:43.490Z,25.10
2022-07-25T13:21:45.952Z,25.00
2022-07-25T13:26:48.289Z,25.20
2022-07-25T13:31:50.577Z,24.60
2022-07-25T13:36:53.192Z,24.60
2022-07-25T13:41:55.415Z,24.70
2022-07-25T13:46:58.798Z,24.60
2022-07-25T13:52:01.061Z,24.60
2022-07-25T13:57:03.822Z,24.60
2022-07-25T14:02:06.227Z,24.70
2022-07-25T14:07:08.631Z,24.90
2022-07-25T14:12:10.912Z,24.70
2022-07-25T14:17:13.257Z,24.60
2022-07-25T14:22:15.664Z,24.40
2022-07-25T14:27:18.000Z,24.50
2022-07-25T14:32:20.336Z,24.50
2022-07-25T14:37:23.581Z,24.60
2022-07-25T14:42:26.552Z,24.60
2022-07-25T14:47:28.984Z,24.60
2022-07-25T14:52:31.351Z,24.50
2022-07-25T14:57:33.775Z,24.90
2022-07-25T15:02:36.056Z,24.90
2022-07-25T15:07:38.423Z,24.70
2022-07-25T15:12:40.882Z,24.80
2022-07-25T15:17:43.248Z,24.70
2022-07-25T15:22:45.531Z,24.60
2022-07-25T15:27:47.824Z,24.60
2022-07-25T15:32:50.196Z,24.50
2022-07-25T15:37:52.927Z,24.70
2022-07-25T15:42:55.202Z,24.70
2022-07-25T15:47:59.406Z,24.50
2022-07-25T15:53:01.884Z,24.60
2022-07-25T15:58:04.448Z,24.20
2022-07-25T16:03:07.202Z,24.30
2022-07-25T16:08:10.017Z,24.30
2022-07-25T16:13:12.287Z,24.40
2022-07-25T16:18:14.666Z,24.30
2022-07-25T16:23:17.008Z,24.30
2022-07-25T16:28:19.407Z,24.10
2022-07-25T16:33:21.765Z,24.00
2022-07-25T16:38:24.302Z,24.30
2022-07-25T16:43:26.644Z,24.20
2022-07-25T16:48:29.054Z,24.10
2022-07-25T16:53:32.853Z,23.90
2022-07-25T16:58:35.168Z,24.00
2022-07-25T17:03:37.514Z,24.00
2022-07-25T17:08:39.841Z,24.10
2022-07-25T17:13:42.159Z,24.10
2022-07-25T17:18:45.525Z,23.90
2022-07-25T17:23:50.534Z,23.70
2022-07-25T17:28:53.917Z,23.80
2022-07-25T17:33:56.189Z,23.80
2022-07-25T17:38:58.473Z,23.90
2022-07-25T17:44:00.923Z,23.90
2022-07-25T17:49:04.035Z,24.10
2022-07-25T17:54:06.845Z,24.30
2022-07-25T17:59:09.473Z,24.50
2022-07-25T18:04:11.987Z,24.60
2022-07-25T18:09:14.329Z,24.60
2022-07-25T18:14:16.612Z,24.60
2022-07-25T18:19:18.991Z,24.50
2022-07-25T18:24:24.761Z,24.50
2022-07-25T18:29:29.720Z,24.40
2022-07-25T18:34:32.102Z,24.30
2022-07-25T18:39:35.160Z,24.30
2022-07-25T18:44:37.675Z,24.30
2022-07-25T18:49:39.967Z,24.30
2022-07-25T18:54:42.289Z,24.30
2022-07-25T18:59:44.743Z,24.40
2022-07-25T19:04:47.093Z,24.40
2022-07-25T19:09:49.557Z,24.40
2022-07-25T19:14:52.021Z,24.40
2022-07-25T19:19:54.488Z,24.40
2022-07-25T19:24:56.735Z,24.50
2022-07-25T19:29:59.039Z,24.40
2022-07-25T19:35:04.433Z,24.40
2022-07-25T19:40:07.464Z,24.30
2022-07-25T19:45:10.399Z,24.30
2022-07-25T19:50:12.767Z,24.20
2022-07-25T19:55:15.452Z,24.10
2022-07-25T20:00:18.076Z,24.10
2022-07-25T20:05:20.443Z,24.10
2022-07-25T20:10:22.759Z,24.10
2022-07-25T20:15:25.407Z,24.10
2022-07-25T20:20:27.992Z,24.00
2022-07-25T20:25:30.517Z,24.00
2022-07-25T20:30:34.946Z,23.90
2022-07-25T20:35:38.696Z,23.90
2022-07-25T20:40:48.095Z,23.80
2022-07-25T20:45:54.845Z,23.80
2022-07-25T20:50:57.666Z,23.80
2022-07-25T20:56:00.134Z,23.80
2022-07-25T21:01:02.605Z,23.70
2022-07-25T21:06:05.783Z,23.70
2022-07-25T21:11:08.589Z,23.70
2022-07-25T21:16:11.203Z,23.70
2022-07-25T21:21:13.689Z,23.70
2022-07-25T21:26:16.231Z,23.60
2022-07-25T21:31:19.309Z,23.60
2022-07-25T21:36:21.659Z,23.50
2022-07-25T21:41:24.181Z,23.50
2022-07-25T21:46:26.497Z,23.50
2022-07-25T21:51:36.864Z,23.50
2022-07-25T21:56:43.381Z,23.40
2022-07-25T22:01:45.681Z,23.40
2022-07-25T22:06:48.117Z,23.40
2022-07-25T22:11:50.422Z,23.40
2022-07-25T22:16:52.861Z,23.30
2022-07-25T22:21:55.211Z,23.30
2022-07-25T22:26:57.638Z,23.20
2022-07-25T22:32:00.514Z,23.20
2022-07-25T22:37:03.095Z,23.10
2022-07-25T22:42:05.598Z,23.10
2022-07-25T22:47:07.911Z,23.10
2022-07-25T22:52:10.212Z,23.10
2022-07-25T22:57:12.513Z,23.00
2022-07-25T23:02:14.936Z,23.00
2022-07-25T23:07:17.281Z,23.00
2022-07-25T23:12:19.721Z,23.00
2022-07-25T23:17:22.544Z,23.10
2022-07-25T23:22:27.669Z,23.10
2022-07-25T23:27:33.303Z,23.20
2022-07-25T23:32:37.245Z,23.20
2022-07-25T23:37:39.905Z,23.30
2022-07-25T23:42:42.359Z,23.30
2022-07-25T23:47:44.693Z,23.40
2022-07-25T23:52:47.007Z,23.40
2022-07-25T23:57:49.729Z,23.40
